createdAt,value
2023-02-03T00:00:10.741Z,54.84
2023-02-03T00:01:10.782Z,54.61
2023-02-03T00:02:10.788Z,54.64
2023-02-03T00:03:10.739Z,54.35
2023-02-03T00:04:10.713Z,55.09
2023-02-03T00:05:10.708Z,54.43
2023-02-03T00:06:10.726Z,54.32
2023-02-03T00:07:11.165Z,54.48
2023-02-03T00:08:11.693Z,54.62
2023-02-03T00:09:10.655Z,54.75
2023-02-03T00:10:10.675Z,54.46
2023-02-03T00:11:10.648Z,54.43
2023-02-03T00:12:10.633Z,56.01
2023-02-03T00:13:10.678Z,55.23
2023-02-03T00:14:10.601Z,54.54
2023-02-03T00:15:10.615Z,54.92
2023-02-03T00:16:10.603Z,57.83
2023-02-03T00:17:10.573Z,54.70
2023-02-03T00:18:10.602Z,54.88
2023-02-03T00:19:10.643Z,55.63
2023-02-03T00:20:10.615Z,54.83
2023-02-03T00:21:10.550Z,54.92
2023-02-03T00:22:10.535Z,54.58
2023-02-03T00:23:10.557Z,56.01
2023-02-03T00:24:10.516Z,56.70
2023-02-03T00:25:10.578Z,54.67
2023-02-03T00:26:10.549Z,55.34
2023-02-03T00:27:10.498Z,54.93
2023-02-03T00:28:10.545Z,56.42
2023-02-03T00:29:10.514Z,55.56
2023-02-03T00:30:10.537Z,57.18
2023-02-03T00:31:10.577Z,55.20
2023-02-03T00:32:10.657Z,56.80
2023-02-03T00:33:10.613Z,55.60
2023-02-03T00:34:10.508Z,54.56
2023-02-03T00:35:10.439Z,54.05
2023-02-03T00:36:10.485Z,54.55
2023-02-03T00:37:10.534Z,57.07
2023-02-03T00:38:10.429Z,54.27
2023-02-03T00:39:10.422Z,54.22
2023-02-03T00:40:10.423Z,54.09
2023-02-03T00:41:10.426Z,54.24
2023-02-03T00:42:10.411Z,54.51
2023-02-03T00:43:10.507Z,55.73
2023-02-03T00:44:10.429Z,54.45
2023-02-03T00:45:10.429Z,55.75
2023-02-03T00:46:10.429Z,54.81
2023-02-03T00:47:10.376Z,55.17
2023-02-03T00:48:10.357Z,54.46
2023-02-03T00:49:10.392Z,54.77
2023-02-03T00:50:10.348Z,54.22
2023-02-03T00:51:10.370Z,54.34
2023-02-03T00:52:10.336Z,54.42
2023-02-03T00:53:10.326Z,54.60
2023-02-03T00:54:10.336Z,54.12
2023-02-03T00:55:10.357Z,54.31
2023-02-03T00:56:10.300Z,55.18
2023-02-03T00:57:10.300Z,54.92
2023-02-03T00:58:10.322Z,54.74
2023-02-03T00:59:10.295Z,55.00
2023-02-03T01:00:10.287Z,55.13
2023-02-03T01:01:10.439Z,54.48
2023-02-03T01:02:10.354Z,54.35
2023-02-03T01:03:10.265Z,55.32
2023-02-03T01:04:10.273Z,55.45
2023-02-03T01:05:10.238Z,55.00
2023-02-03T01:06:10.238Z,53.97
2023-02-03T01:07:10.774Z,54.09
2023-02-03T01:08:10.223Z,55.00
2023-02-03T01:09:10.222Z,54.05
2023-02-03T01:10:10.223Z,54.72
2023-02-03T01:11:10.205Z,55.11
2023-02-03T01:12:10.186Z,55.94
2023-02-03T01:13:10.257Z,56.24
2023-02-03T01:14:10.176Z,55.77
2023-02-03T01:15:10.202Z,54.52
2023-02-03T01:16:10.197Z,54.99
2023-02-03T01:17:10.150Z,54.63
2023-02-03T01:18:10.166Z,55.80
2023-02-03T01:19:10.182Z,54.53
2023-02-03T01:20:10.165Z,56.11
2023-02-03T01:21:10.144Z,55.83
2023-02-03T01:22:10.097Z,54.40
2023-02-03T01:23:10.121Z,54.90
2023-02-03T01:24:10.117Z,54.59
2023-02-03T01:25:10.149Z,54.35
2023-02-03T01:26:10.084Z,55.82
2023-02-03T01:27:10.078Z,54.63
2023-02-03T01:28:10.128Z,54.25
2023-02-03T01:29:10.062Z,54.50
2023-02-03T01:30:10.052Z,56.54
2023-02-03T01:31:10.238Z,56.04
2023-02-03T01:32:10.063Z,54.31
2023-02-03T01:33:10.070Z,53.98
2023-02-03T01:34:10.056Z,54.17
2023-02-03T01:35:10.041Z,54.13
2023-02-03T01:36:10.037Z,54.55
2023-02-03T01:37:10.089Z,54.46
2023-02-03T01:38:09.996Z,54.97
2023-02-03T01:39:10.042Z,54.53
2023-02-03T01:40:10.024Z,54.33
2023-02-03T01:41:09.998Z,54.28
2023-02-03T01:42:10.067Z,54.18
2023-02-03T01:43:10.032Z,54.10
2023-02-03T01:44:09.983Z,54.39
2023-02-03T01:45:11.901Z,54.76
2023-02-03T01:46:10.004Z,57.98
2023-02-03T01:47:09.946Z,56.88
2023-02-03T01:48:09.949Z,54.71
2023-02-03T01:49:09.961Z,53.98
2023-02-03T01:50:09.936Z,54.48
2023-02-03T01:51:09.922Z,54.13
2023-02-03T01:52:09.905Z,54.89
2023-02-03T01:53:09.885Z,55.02
2023-02-03T01:54:09.910Z,54.08
2023-02-03T01:55:09.933Z,54.10
2023-02-03T01:56:09.889Z,54.21
2023-02-03T01:57:09.850Z,54.94
2023-02-03T01:58:09.857Z,54.48
2023-02-03T01:59:09.868Z,55.36
2023-02-03T02:00:09.859Z,54.15
2023-02-03T02:01:09.876Z,54.03
2023-02-03T02:02:09.846Z,54.54
2023-02-03T02:03:09.831Z,54.37
2023-02-03T02:04:09.811Z,54.20
2023-02-03T02:05:09.802Z,56.91
2023-02-03T02:06:09.798Z,54.58
2023-02-03T02:07:09.857Z,54.52
2023-02-03T02:08:09.804Z,54.66
2023-02-03T02:09:09.772Z,54.43
2023-02-03T02:10:09.766Z,54.41
2023-02-03T02:11:09.776Z,54.88
2023-02-03T02:12:09.769Z,57.00
2023-02-03T02:13:10.104Z,54.63
2023-02-03T02:14:09.739Z,54.47
2023-02-03T02:15:09.773Z,54.15
2023-02-03T02:16:09.786Z,54.34
2023-02-03T02:17:09.737Z,54.68
2023-02-03T02:18:09.719Z,54.61
2023-02-03T02:19:09.780Z,54.67
2023-02-03T02:20:09.714Z,54.57
2023-02-03T02:21:09.717Z,54.57
2023-02-03T02:22:09.691Z,55.68
2023-02-03T02:23:09.667Z,55.35
2023-02-03T02:24:09.681Z,54.23
2023-02-03T02:25:09.711Z,54.41
2023-02-03T02:26:09.659Z,54.64
2023-02-03T02:27:09.638Z,54.85
2023-02-03T02:28:09.760Z,54.44
2023-02-03T02:29:09.617Z,54.28
2023-02-03T02:30:09.632Z,54.29
2023-02-03T02:31:09.728Z,54.71
2023-02-03T02:32:09.600Z,54.78
2023-02-03T02:33:09.596Z,54.55
2023-02-03T02:34:09.606Z,54.82
2023-02-03T02:35:09.598Z,54.49
2023-02-03T02:36:09.629Z,54.51
2023-02-03T02:37:09.649Z,57.38
2023-02-03T02:38:09.577Z,55.16
2023-02-03T02:39:09.554Z,56.07
2023-02-03T02:40:09.568Z,56.63
2023-02-03T02:41:09.542Z,55.62
2023-02-03T02:42:09.526Z,54.39
2023-02-03T02:43:09.580Z,54.51
2023-02-03T02:44:09.539Z,58.39
2023-02-03T02:45:09.708Z,56.49
2023-02-03T02:46:09.584Z,54.50
2023-02-03T02:47:09.506Z,54.57
2023-02-03T02:48:09.492Z,54.65
2023-02-03T02:49:09.566Z,54.87
2023-02-03T02:50:09.537Z,54.60
2023-02-03T02:51:09.490Z,54.74
2023-02-03T02:52:09.518Z,55.33
2023-02-03T02:53:09.545Z,54.79
2023-02-03T02:54:09.454Z,54.40
2023-02-03T02:55:09.533Z,54.85
2023-02-03T02:56:11.540Z,55.12
2023-02-03T02:57:09.466Z,54.40
2023-02-03T02:58:09.432Z,54.50
2023-02-03T02:59:09.442Z,54.95
2023-02-03T03:00:09.437Z,54.37
2023-02-03T03:01:09.504Z,55.91
2023-02-03T03:02:09.399Z,54.22
2023-02-03T03:03:09.455Z,54.15
2023-02-03T03:04:09.387Z,54.43
2023-02-03T03:05:09.455Z,55.78
2023-02-03T03:06:09.377Z,55.54
2023-02-03T03:07:09.408Z,53.93
2023-02-03T03:08:09.374Z,56.22
2023-02-03T03:09:09.364Z,54.46
2023-02-03T03:10:09.344Z,54.25
2023-02-03T03:11:09.343Z,54.38
2023-02-03T03:12:09.338Z,54.98
2023-02-03T03:13:09.758Z,55.45
2023-02-03T03:14:09.305Z,54.51
2023-02-03T03:15:09.337Z,55.26
2023-02-03T03:16:09.373Z,57.69
2023-02-03T03:17:09.282Z,55.10
2023-02-03T03:18:09.311Z,53.96
2023-02-03T03:19:09.314Z,54.37
2023-02-03T03:20:09.257Z,57.69
2023-02-03T03:21:09.264Z,58.46
2023-02-03T03:22:09.278Z,57.50
2023-02-03T03:23:09.277Z,54.72
2023-02-03T03:24:09.259Z,54.75
2023-02-03T03:25:09.299Z,56.69
2023-02-03T03:26:09.216Z,56.96
2023-02-03T03:27:09.251Z,55.44
2023-02-03T03:28:09.282Z,55.44
2023-02-03T03:29:09.212Z,56.53
2023-02-03T03:30:09.312Z,54.89
2023-02-03T03:31:09.343Z,57.18
2023-02-03T03:32:09.197Z,56.48
2023-02-03T03:33:09.189Z,55.14
2023-02-03T03:34:09.179Z,55.11
2023-02-03T03:35:09.192Z,55.62
2023-02-03T03:36:09.178Z,55.82
2023-02-03T03:37:09.201Z,55.31
2023-02-03T03:38:09.158Z,55.61
2023-02-03T03:39:09.155Z,55.17
2023-02-03T03:40:09.116Z,55.93
2023-02-03T03:41:09.117Z,56.78
2023-02-03T03:42:09.089Z,56.05
2023-02-03T03:43:09.239Z,57.54
2023-02-03T03:44:09.119Z,55.02
2023-02-03T03:45:09.094Z,56.73
2023-02-03T03:46:09.087Z,55.12
2023-02-03T03:47:09.087Z,55.19
2023-02-03T03:48:09.073Z,56.21
2023-02-03T03:49:09.136Z,55.29
2023-02-03T03:50:09.067Z,56.94
2023-02-03T03:51:09.060Z,57.70
2023-02-03T03:52:09.044Z,57.49
2023-02-03T03:53:09.054Z,55.22
2023-02-03T03:54:09.063Z,55.78
2023-02-03T03:55:09.061Z,56.02
2023-02-03T03:56:09.022Z,55.95
2023-02-03T03:57:09.016Z,55.58
2023-02-03T03:58:09.006Z,56.58
2023-02-03T03:59:08.979Z,55.65
2023-02-03T04:00:08.988Z,54.97
2023-02-03T04:01:09.056Z,55.90
2023-02-03T04:02:09.090Z,56.27
2023-02-03T04:03:09.055Z,56.70
2023-02-03T04:04:08.947Z,55.57
2023-02-03T04:05:08.956Z,58.81
2023-02-03T04:06:08.964Z,55.91
2023-02-03T04:07:08.990Z,55.42
2023-02-03T04:08:08.918Z,56.58
2023-02-03T04:09:08.925Z,57.57
2023-02-03T04:10:08.893Z,57.56
2023-02-03T04:11:08.897Z,55.49
2023-02-03T04:12:08.901Z,55.19
2023-02-03T04:13:08.924Z,55.22
2023-02-03T04:14:08.889Z,55.76
2023-02-03T04:15:08.866Z,55.37
2023-02-03T04:16:08.922Z,55.81
2023-02-03T04:17:08.864Z,56.20
2023-02-03T04:18:08.858Z,55.84
2023-02-03T04:19:09.193Z,57.21
2023-02-03T04:20:08.832Z,55.72
2023-02-03T04:21:08.831Z,56.20
2023-02-03T04:22:08.852Z,55.99
2023-02-03T04:23:08.815Z,56.31
2023-02-03T04:24:08.822Z,56.89
2023-02-03T04:25:08.876Z,57.13
2023-02-03T04:26:08.775Z,56.92
2023-02-03T04:27:08.787Z,59.79
2023-02-03T04:28:08.832Z,56.69
2023-02-03T04:29:08.774Z,55.56
2023-02-03T04:30:08.760Z,56.37
2023-02-03T04:31:08.933Z,55.70
2023-02-03T04:32:08.789Z,56.32
2023-02-03T04:33:08.734Z,58.05
2023-02-03T04:34:08.717Z,60.94
2023-02-03T04:35:08.711Z,57.10
2023-02-03T04:36:08.706Z,56.15
2023-02-03T04:37:08.745Z,57.71
2023-02-03T04:38:08.691Z,56.40
2023-02-03T04:39:08.692Z,56.53
2023-02-03T04:40:08.682Z,56.98
2023-02-03T04:41:08.689Z,56.10
2023-02-03T04:42:08.663Z,57.25
2023-02-03T04:43:08.744Z,58.48
2023-02-03T04:44:08.640Z,58.41
2023-02-03T04:45:08.650Z,58.11
2023-02-03T04:46:08.684Z,56.57
2023-02-03T04:47:08.621Z,56.79
2023-02-03T04:48:08.648Z,59.06
2023-02-03T04:49:08.673Z,57.03
2023-02-03T04:50:08.625Z,57.08
2023-02-03T04:51:08.596Z,56.54
2023-02-03T04:52:08.596Z,59.61
2023-02-03T04:53:08.605Z,61.29
2023-02-03T04:54:08.575Z,58.40
2023-02-03T04:55:08.644Z,56.47
2023-02-03T04:56:08.549Z,58.51
2023-02-03T04:57:08.543Z,57.19
2023-02-03T04:58:08.564Z,56.13
2023-02-03T04:59:08.521Z,59.69
2023-02-03T05:00:08.548Z,57.05
2023-02-03T05:01:08.620Z,57.67
2023-02-03T05:02:08.552Z,58.81
2023-02-03T05:03:08.582Z,58.90
2023-02-03T05:04:08.503Z,56.74
2023-02-03T05:05:08.525Z,56.31
2023-02-03T05:06:08.496Z,62.02
2023-02-03T05:07:08.513Z,56.22
2023-02-03T05:08:08.494Z,58.28
2023-02-03T05:09:08.463Z,56.58
2023-02-03T05:10:08.470Z,57.30
2023-02-03T05:11:08.471Z,56.48
2023-02-03T05:12:08.456Z,57.02
2023-02-03T05:13:08.506Z,56.10
2023-02-03T05:14:08.417Z,57.29
2023-02-03T05:15:08.422Z,57.75
2023-02-03T05:16:08.469Z,57.97
2023-02-03T05:17:08.410Z,58.76
2023-02-03T05:18:08.403Z,57.52
2023-02-03T05:19:08.926Z,56.78
2023-02-03T05:20:08.386Z,59.83
2023-02-03T05:21:08.365Z,57.75
2023-02-03T05:22:08.373Z,58.20
2023-02-03T05:23:08.406Z,56.80
2023-02-03T05:24:08.361Z,55.81
2023-02-03T05:25:08.412Z,56.78
2023-02-03T05:26:08.356Z,58.23
2023-02-03T05:27:08.368Z,55.97
2023-02-03T05:28:08.407Z,56.32
2023-02-03T05:29:08.324Z,55.71
2023-02-03T05:30:08.286Z,57.82
2023-02-03T05:31:08.383Z,57.68
2023-02-03T05:32:08.383Z,59.24
2023-02-03T05:33:08.300Z,57.56
2023-02-03T05:34:08.297Z,57.43
2023-02-03T05:35:08.259Z,59.55
2023-02-03T05:36:08.262Z,57.75
2023-02-03T05:37:08.306Z,58.00
2023-02-03T05:38:08.271Z,59.08
2023-02-03T05:39:08.234Z,60.60
2023-02-03T05:40:08.211Z,58.42
2023-02-03T05:41:08.221Z,56.96
2023-02-03T05:42:08.223Z,59.87
2023-02-03T05:43:08.270Z,60.17
2023-02-03T05:44:08.222Z,57.65
2023-02-03T05:45:08.230Z,57.66
2023-02-03T05:46:08.301Z,58.45
2023-02-03T05:47:08.187Z,60.29
2023-02-03T05:48:08.187Z,58.76
2023-02-03T05:49:08.198Z,59.25
2023-02-03T05:50:08.223Z,61.05
2023-02-03T05:51:08.154Z,59.20
2023-02-03T05:52:08.142Z,58.44
2023-02-03T05:53:08.158Z,58.51
2023-02-03T05:54:08.137Z,58.03
2023-02-03T05:55:08.173Z,58.57
2023-02-03T05:56:08.113Z,59.29
2023-02-03T05:57:08.112Z,61.52
2023-02-03T05:58:08.125Z,60.15
2023-02-03T05:59:08.104Z,57.17
2023-02-03T06:00:08.093Z,57.49
2023-02-03T06:01:08.102Z,58.92
2023-02-03T06:02:08.085Z,62.00
2023-02-03T06:03:08.090Z,61.86
2023-02-03T06:04:08.166Z,62.34
2023-02-03T06:05:08.047Z,59.10
2023-02-03T06:06:08.056Z,59.56
2023-02-03T06:07:08.085Z,56.97
2023-02-03T06:08:08.047Z,59.05
2023-02-03T06:09:08.021Z,58.55
2023-02-03T06:10:08.020Z,61.63
2023-02-03T06:11:07.994Z,62.86
2023-02-03T06:12:08.006Z,59.38
2023-02-03T06:13:08.070Z,59.64
2023-02-03T06:14:08.031Z,57.89
2023-02-03T06:15:07.979Z,58.57
2023-02-03T06:16:07.956Z,57.80
2023-02-03T06:17:07.932Z,59.63
2023-02-03T06:18:07.964Z,58.20
2023-02-03T06:19:08.014Z,60.70
2023-02-03T06:20:07.917Z,59.95
2023-02-03T06:21:07.934Z,59.19
2023-02-03T06:22:09.005Z,60.37
2023-02-03T06:23:07.939Z,60.51
2023-02-03T06:24:07.913Z,60.81
2023-02-03T06:25:08.442Z,59.57
2023-02-03T06:26:07.867Z,59.20
2023-02-03T06:27:07.896Z,62.25
2023-02-03T06:28:09.480Z,60.99
2023-02-03T06:29:07.855Z,59.25
2023-02-03T06:30:07.851Z,58.30
2023-02-03T06:31:08.040Z,61.72
2023-02-03T06:32:07.862Z,61.02
2023-02-03T06:33:07.848Z,64.42
2023-02-03T06:34:07.835Z,61.24
2023-02-03T06:35:07.850Z,59.59
2023-02-03T06:36:07.821Z,61.20
2023-02-03T06:37:07.867Z,60.09
2023-02-03T06:38:07.798Z,58.93
2023-02-03T06:39:07.796Z,60.28
2023-02-03T06:40:07.792Z,60.18
2023-02-03T06:41:07.818Z,60.21
2023-02-03T06:42:07.766Z,60.85
2023-02-03T06:43:07.826Z,61.46
2023-02-03T06:44:07.779Z,61.43
2023-02-03T06:45:07.749Z,64.11
2023-02-03T06:46:07.774Z,62.10
2023-02-03T06:47:07.739Z,62.20
2023-02-03T06:48:07.750Z,61.60
2023-02-03T06:49:07.783Z,60.88
2023-02-03T06:50:07.690Z,61.85
2023-02-03T06:51:07.681Z,62.44
2023-02-03T06:52:07.693Z,63.24
2023-02-03T06:53:07.684Z,60.74
2023-02-03T06:54:07.652Z,59.13
2023-02-03T06:55:07.727Z,61.07
2023-02-03T06:56:07.647Z,60.40
2023-02-03T06:57:07.676Z,59.24
2023-02-03T06:58:07.652Z,61.58
2023-02-03T06:59:07.652Z,60.01
2023-02-03T07:00:07.656Z,59.83
2023-02-03T07:01:07.714Z,59.41
2023-02-03T07:02:07.622Z,59.76
2023-02-03T07:03:07.619Z,61.85
2023-02-03T07:04:07.608Z,60.83
2023-02-03T07:05:07.600Z,61.26
2023-02-03T07:06:07.589Z,59.70
2023-02-03T07:07:07.636Z,60.90
2023-02-03T07:08:07.571Z,60.01
2023-02-03T07:09:07.574Z,60.59
2023-02-03T07:10:07.545Z,58.68
2023-02-03T07:11:07.560Z,60.24
2023-02-03T07:12:07.539Z,59.77
2023-02-03T07:13:07.623Z,61.62
2023-02-03T07:14:07.534Z,61.39
2023-02-03T07:15:07.539Z,62.76
2023-02-03T07:16:07.585Z,62.20
2023-02-03T07:17:07.540Z,63.06
2023-02-03T07:18:07.512Z,62.58
2023-02-03T07:19:07.572Z,59.67
2023-02-03T07:20:07.495Z,61.52
2023-02-03T07:21:07.496Z,60.14
2023-02-03T07:22:07.499Z,60.09
2023-02-03T07:23:07.480Z,60.60
2023-02-03T07:24:07.486Z,59.28
2023-02-03T07:25:07.517Z,57.62
2023-02-03T07:26:07.457Z,58.91
2023-02-03T07:27:07.429Z,58.65
2023-02-03T07:28:07.483Z,59.67
2023-02-03T07:29:07.437Z,58.33
2023-02-03T07:30:07.432Z,62.07
2023-02-03T07:31:07.834Z,61.43
2023-02-03T07:32:07.523Z,61.10
2023-02-03T07:33:07.392Z,60.96
2023-02-03T07:34:07.418Z,58.52
2023-02-03T07:35:07.383Z,59.29
2023-02-03T07:36:07.395Z,60.07
2023-02-03T07:37:07.418Z,59.11
2023-02-03T07:38:07.363Z,59.26
2023-02-03T07:39:07.376Z,60.00
2023-02-03T07:40:07.338Z,61.68
2023-02-03T07:41:07.375Z,59.44
2023-02-03T07:42:07.355Z,59.23
2023-02-03T07:43:07.379Z,59.96
2023-02-03T07:44:07.365Z,59.38
2023-02-03T07:45:07.313Z,59.62
2023-02-03T07:46:07.382Z,60.74
2023-02-03T07:47:07.305Z,62.06
2023-02-03T07:48:07.296Z,61.23
2023-02-03T07:49:07.328Z,60.35
2023-02-03T07:50:07.320Z,59.89
2023-02-03T07:51:07.258Z,61.05
2023-02-03T07:52:07.254Z,60.75
2023-02-03T07:53:07.269Z,62.31
2023-02-03T07:54:07.244Z,61.26
2023-02-03T07:55:07.302Z,60.15
2023-02-03T07:56:07.217Z,60.61
2023-02-03T07:57:07.220Z,60.61
2023-02-03T07:58:07.224Z,63.43
2023-02-03T07:59:07.224Z,61.43
2023-02-03T08:00:07.186Z,62.19
2023-02-03T08:01:07.218Z,64.55
2023-02-03T08:02:07.185Z,63.89
2023-02-03T08:03:07.187Z,63.02
2023-02-03T08:04:07.163Z,61.34
2023-02-03T08:05:07.170Z,61.68
2023-02-03T08:06:07.156Z,60.56
2023-02-03T08:07:07.274Z,61.41
2023-02-03T08:08:07.118Z,61.96
2023-02-03T08:09:07.121Z,60.66
2023-02-03T08:10:07.100Z,59.24
2023-02-03T08:11:07.117Z,59.30
2023-02-03T08:12:07.116Z,60.51
2023-02-03T08:13:07.154Z,62.41
2023-02-03T08:14:07.098Z,61.64
2023-02-03T08:15:07.096Z,62.13
2023-02-03T08:16:07.089Z,60.52
2023-02-03T08:17:07.139Z,61.97
2023-02-03T08:18:07.059Z,60.38
2023-02-03T08:19:07.121Z,60.37
2023-02-03T08:20:07.055Z,58.76
2023-02-03T08:21:07.052Z,60.37
2023-02-03T08:22:07.048Z,61.51
2023-02-03T08:23:07.036Z,61.00
2023-02-03T08:24:07.024Z,61.12
2023-02-03T08:25:07.045Z,61.64
2023-02-03T08:26:06.990Z,61.10
2023-02-03T08:27:06.997Z,60.75
2023-02-03T08:28:07.057Z,61.11
2023-02-03T08:29:06.978Z,59.98
2023-02-03T08:30:06.986Z,62.54
2023-02-03T08:31:07.110Z,62.04
2023-02-03T08:32:07.011Z,61.86
2023-02-03T08:33:06.933Z,61.02
2023-02-03T08:34:06.942Z,61.15
2023-02-03T08:35:06.950Z,61.54
2023-02-03T08:36:06.938Z,60.93
2023-02-03T08:37:07.265Z,60.59
2023-02-03T08:38:07.003Z,61.07
2023-02-03T08:39:06.906Z,60.05
2023-02-03T08:40:06.950Z,62.29
2023-02-03T08:41:06.889Z,60.45
2023-02-03T08:42:06.884Z,59.33
2023-02-03T08:43:06.997Z,60.93
2023-02-03T08:44:06.858Z,61.64
2023-02-03T08:45:06.863Z,61.15
2023-02-03T08:46:06.957Z,60.50
2023-02-03T08:47:06.829Z,59.00
2023-02-03T08:48:06.849Z,60.29
2023-02-03T08:49:06.879Z,63.52
2023-02-03T08:50:06.872Z,62.19
2023-02-03T08:51:06.835Z,61.27
2023-02-03T08:52:06.886Z,62.11
2023-02-03T08:53:06.797Z,59.61
2023-02-03T08:54:06.818Z,60.74
2023-02-03T08:55:06.834Z,59.81
2023-02-03T08:56:06.803Z,60.01
2023-02-03T08:57:06.803Z,57.62
2023-02-03T08:58:06.794Z,60.08
2023-02-03T08:59:06.777Z,60.09
2023-02-03T09:00:06.774Z,59.50
2023-02-03T09:01:06.853Z,59.68
2023-02-03T09:02:06.791Z,60.21
2023-02-03T09:03:06.768Z,60.53
2023-02-03T09:04:06.734Z,59.20
2023-02-03T09:05:06.782Z,59.17
2023-02-03T09:06:06.707Z,60.40
2023-02-03T09:07:06.765Z,59.34
2023-02-03T09:08:06.692Z,59.52
2023-02-03T09:09:06.728Z,59.04
2023-02-03T09:10:06.773Z,60.02
2023-02-03T09:11:06.665Z,60.16
2023-02-03T09:12:06.661Z,61.37
2023-02-03T09:13:06.702Z,59.77
2023-02-03T09:14:07.450Z,59.35
2023-02-03T09:15:06.668Z,58.98
2023-02-03T09:16:06.692Z,62.16
2023-02-03T09:17:06.632Z,60.33
2023-02-03T09:18:06.608Z,61.88
2023-02-03T09:19:06.680Z,61.72
2023-02-03T09:20:06.668Z,61.64
2023-02-03T09:21:06.600Z,60.96
2023-02-03T09:22:06.582Z,61.15
2023-02-03T09:23:06.610Z,61.36
2023-02-03T09:24:06.579Z,63.46
2023-02-03T09:25:06.632Z,60.75
2023-02-03T09:26:06.592Z,60.47
2023-02-03T09:27:06.564Z,61.23
2023-02-03T09:28:06.599Z,60.13
2023-02-03T09:29:06.528Z,58.83
2023-02-03T09:30:06.529Z,61.71
2023-02-03T09:31:06.637Z,60.37
2023-02-03T09:32:06.569Z,61.02
2023-02-03T09:33:06.510Z,61.62
2023-02-03T09:34:06.566Z,60.14
2023-02-03T09:35:06.490Z,61.94
2023-02-03T09:36:06.495Z,63.26
2023-02-03T09:37:06.924Z,60.38
2023-02-03T09:38:06.481Z,61.65
2023-02-03T09:39:06.489Z,60.26
2023-02-03T09:40:06.470Z,60.55
2023-02-03T09:41:11.532Z,62.37
2023-02-03T09:42:07.475Z,62.07
2023-02-03T09:43:06.595Z,66.44
2023-02-03T09:44:06.439Z,61.12
2023-02-03T09:45:06.435Z,63.14
2023-02-03T09:46:06.468Z,65.62
2023-02-03T09:47:08.226Z,61.44
2023-02-03T09:48:06.497Z,63.09
2023-02-03T09:49:06.483Z,62.03
2023-02-03T09:50:06.508Z,61.05
2023-02-03T09:51:06.401Z,62.11
2023-02-03T09:52:06.385Z,61.76
2023-02-03T09:53:06.444Z,60.50
2023-02-03T09:54:06.452Z,60.68
2023-02-03T09:55:06.448Z,62.09
2023-02-03T09:56:06.329Z,60.70
2023-02-03T09:57:07.711Z,62.54
2023-02-03T09:58:06.347Z,60.89
2023-02-03T09:59:06.356Z,61.74
2023-02-03T10:00:06.301Z,60.85
2023-02-03T10:01:06.461Z,59.38
2023-02-03T10:02:06.335Z,60.51
2023-02-03T10:03:06.283Z,61.11
2023-02-03T10:04:06.289Z,61.01
2023-02-03T10:05:06.337Z,61.85
2023-02-03T10:06:06.297Z,61.63
2023-02-03T10:07:06.389Z,60.70
2023-02-03T10:08:06.254Z,60.74
2023-02-03T10:09:06.274Z,62.15
2023-02-03T10:10:06.227Z,60.02
2023-02-03T10:11:06.220Z,60.13
2023-02-03T10:12:06.218Z,62.51
2023-02-03T10:13:06.383Z,62.83
2023-02-03T10:14:06.223Z,60.73
2023-02-03T10:15:06.262Z,61.91
2023-02-03T10:16:06.266Z,61.76
2023-02-03T10:17:06.306Z,60.15
2023-02-03T10:18:06.190Z,62.05
2023-02-03T10:19:06.259Z,59.09
2023-02-03T10:20:06.240Z,61.23
2023-02-03T10:21:06.165Z,60.14
2023-02-03T10:22:06.175Z,61.00
2023-02-03T10:23:06.148Z,64.02
2023-02-03T10:24:06.131Z,65.29
2023-02-03T10:25:06.169Z,65.16
2023-02-03T10:26:06.154Z,69.40
2023-02-03T10:27:06.210Z,74.09
2023-02-03T10:28:06.147Z,71.16
2023-02-03T10:29:06.105Z,63.16
2023-02-03T10:30:06.105Z,61.96
2023-02-03T10:31:06.247Z,60.11
2023-02-03T10:32:06.301Z,59.82
2023-02-03T10:33:06.054Z,61.09
2023-02-03T10:34:06.058Z,61.94
2023-02-03T10:35:06.057Z,60.65
2023-02-03T10:36:06.042Z,61.94
2023-02-03T10:37:06.289Z,60.29
2023-02-03T10:38:06.048Z,60.99
2023-02-03T10:39:06.043Z,59.96
2023-02-03T10:40:06.019Z,61.53
2023-02-03T10:41:06.071Z,60.53
2023-02-03T10:42:06.036Z,60.44
2023-02-03T10:43:06.110Z,60.45
2023-02-03T10:44:05.983Z,60.27
2023-02-03T10:45:06.060Z,61.22
2023-02-03T10:46:06.019Z,60.53
2023-02-03T10:47:05.985Z,60.37
2023-02-03T10:48:05.988Z,62.87
2023-02-03T10:49:06.108Z,59.30
2023-02-03T10:50:05.943Z,58.59
2023-02-03T10:51:06.042Z,60.27
2023-02-03T10:52:06.001Z,62.07
2023-02-03T10:53:05.935Z,62.58
2023-02-03T10:54:05.930Z,62.43
2023-02-03T10:55:06.073Z,61.40
2023-02-03T10:56:05.962Z,62.68
2023-02-03T10:57:05.918Z,60.74
2023-02-03T10:58:05.897Z,59.75
2023-02-03T10:59:05.883Z,60.26
2023-02-03T11:00:05.896Z,61.39
2023-02-03T11:01:06.147Z,70.68
2023-02-03T11:02:05.862Z,69.84
2023-02-03T11:03:05.936Z,68.44
2023-02-03T11:04:06.853Z,69.61
2023-02-03T11:05:05.842Z,70.37
2023-02-03T11:06:05.889Z,63.22
2023-02-03T11:07:05.897Z,59.60
2023-02-03T11:08:05.816Z,62.90
2023-02-03T11:09:05.912Z,60.81
2023-02-03T11:10:05.807Z,60.10
2023-02-03T11:11:05.808Z,61.30
2023-02-03T11:12:05.840Z,60.51
2023-02-03T11:13:05.848Z,61.91
2023-02-03T11:14:05.768Z,59.89
2023-02-03T11:15:05.758Z,61.20
2023-02-03T11:16:05.793Z,62.46
2023-02-03T11:17:05.747Z,59.48
2023-02-03T11:18:05.746Z,61.69
2023-02-03T11:19:05.807Z,60.42
2023-02-03T11:20:05.720Z,60.22
2023-02-03T11:21:05.731Z,61.01
2023-02-03T11:22:05.737Z,61.86
2023-02-03T11:23:05.722Z,56.91
2023-02-03T11:24:05.761Z,58.78
2023-02-03T11:25:05.858Z,60.89
2023-02-03T11:26:05.763Z,64.07
2023-02-03T11:27:05.693Z,61.72
2023-02-03T11:28:05.716Z,61.87
2023-02-03T11:29:05.674Z,61.69
2023-02-03T11:30:05.668Z,60.51
2023-02-03T11:31:05.800Z,59.83
2023-02-03T11:32:05.756Z,60.90
2023-02-03T11:33:05.616Z,60.60
2023-02-03T11:34:05.629Z,62.95
2023-02-03T11:35:05.637Z,62.18
2023-02-03T11:36:05.641Z,60.57
2023-02-03T11:37:05.695Z,62.59
2023-02-03T11:38:05.585Z,59.03
2023-02-03T11:39:05.585Z,60.63
2023-02-03T11:40:05.638Z,61.26
2023-02-03T11:41:05.631Z,61.62
2023-02-03T11:42:05.560Z,64.38
2023-02-03T11:43:06.001Z,62.46
2023-02-03T11:44:05.569Z,58.63
2023-02-03T11:45:05.584Z,61.75
2023-02-03T11:46:05.631Z,61.93
2023-02-03T11:47:05.529Z,62.89
2023-02-03T11:48:05.526Z,60.06
2023-02-03T11:49:05.608Z,60.26
2023-02-03T11:50:05.513Z,60.69
2023-02-03T11:51:05.555Z,60.78
2023-02-03T11:52:05.529Z,60.25
2023-02-03T11:53:05.491Z,61.53
2023-02-03T11:54:05.479Z,61.86
2023-02-03T11:55:06.678Z,60.05
2023-02-03T11:56:05.467Z,60.06
2023-02-03T11:57:05.461Z,59.90
2023-02-03T11:58:05.503Z,60.41
2023-02-03T11:59:05.414Z,60.52
2023-02-03T12:00:05.467Z,59.63
2023-02-03T12:01:05.534Z,62.55
2023-02-03T12:02:05.472Z,59.07
2023-02-03T12:03:05.489Z,64.34
2023-02-03T12:04:05.460Z,61.49
2023-02-03T12:05:05.390Z,60.41
2023-02-03T12:06:05.399Z,60.88
2023-02-03T12:07:05.453Z,59.87
2023-02-03T12:08:05.378Z,59.91
2023-02-03T12:09:05.353Z,60.10
2023-02-03T12:10:05.367Z,59.89
2023-02-03T12:11:05.360Z,58.50
2023-02-03T12:12:05.344Z,60.11
2023-02-03T12:13:05.369Z,59.45
2023-02-03T12:14:05.356Z,59.64
2023-02-03T12:15:05.311Z,59.37
2023-02-03T12:16:05.461Z,59.74
2023-02-03T12:17:05.294Z,60.08
2023-02-03T12:18:05.299Z,61.53
2023-02-03T12:19:05.429Z,62.65
2023-02-03T12:20:05.296Z,60.03
2023-02-03T12:21:05.247Z,59.09
2023-02-03T12:22:05.267Z,59.69
2023-02-03T12:23:05.261Z,60.33
2023-02-03T12:24:05.293Z,60.85
2023-02-03T12:25:05.322Z,61.09
2023-02-03T12:26:05.248Z,60.55
2023-02-03T12:27:05.245Z,60.58
2023-02-03T12:28:05.264Z,59.03
2023-02-03T12:29:05.251Z,60.87
2023-02-03T12:30:05.240Z,59.03
2023-02-03T12:31:05.347Z,59.20
2023-02-03T12:32:05.202Z,61.13
2023-02-03T12:33:05.218Z,61.16
2023-02-03T12:34:05.179Z,60.16
2023-02-03T12:35:05.224Z,61.34
2023-02-03T12:36:05.188Z,59.82
2023-02-03T12:37:05.217Z,62.28
2023-02-03T12:38:05.164Z,60.33
2023-02-03T12:39:05.172Z,61.22
2023-02-03T12:40:05.171Z,59.99
2023-02-03T12:41:05.150Z,60.90
2023-02-03T12:42:05.105Z,59.56
2023-02-03T12:43:05.171Z,61.57
2023-02-03T12:44:05.136Z,62.29
2023-02-03T12:45:05.125Z,61.14
2023-02-03T12:46:05.126Z,58.66
2023-02-03T12:47:05.098Z,61.13
2023-02-03T12:48:05.069Z,60.14
2023-02-03T12:49:05.499Z,61.01
2023-02-03T12:50:05.120Z,60.02
2023-02-03T12:51:05.063Z,62.56
2023-02-03T12:52:05.049Z,60.15